sensor_id;sensor_type;location;lat;lon;timestamp;P1;durP1;ratioP1;P2;durP2;ratioP2
68910;SDS011;55953;51.650;-0.522;2022-08-14T00:02:24;12.00;;;6.50;;
68910;SDS011;55953;51.650;-0.522;2022-08-14T00:04:54;11.20;;;5.20;;
68910;SDS011;55953;51.650;-0.522;2022-08-14T00:07:22;7.90;;;5.30;;
68910;SDS011;55953;51.650;-0.522;2022-08-14T00:09:50;8.00;;;5.50;;
68910;SDS011;55953;51.650;-0.522;2022-08-14T00:12:27;8.80;;;5.40;;
68910;SDS011;55953;51.650;-0.522;2022-08-14T00:15:20;7.20;;;5.30;;
68910;SDS011;55953;51.650;-0.522;2022-08-14T00:17:52;8.50;;;5.30;;
68910;SDS011;55953;51.650;-0.522;2022-08-14T00:20:27;7.60;;;5.00;;
68910;SDS011;55953;51.650;-0.522;2022-08-14T00:23:12;7.60;;;5.40;;
68910;SDS011;55953;51.650;-0.522;2022-08-14T00:25:46;7.90;;;5.40;;
68910;SDS011;55953;51.650;-0.522;2022-08-14T00:28:25;8.50;;;5.50;;
68910;SDS011;55953;51.650;-0.522;2022-08-14T00:30:59;8.50;;;4.90;;
68910;SDS011;55953;51.650;-0.522;2022-08-14T00:33:28;8.70;;;5.30;;
68910;SDS011;55953;51.650;-0.522;2022-08-14T00:36:16;6.90;;;4.90;;
68910;SDS011;55953;51.650;-0.522;2022-08-14T00:39:04;6.40;;;4.50;;
68910;SDS011;55953;51.650;-0.522;2022-08-14T00:41:35;11.10;;;5.20;;
68910;SDS011;55953;51.650;-0.522;2022-08-14T00:44:06;7.30;;;4.90;;
68910;SDS011;55953;51.650;-0.522;2022-08-14T00:46:36;7.40;;;4.60;;
68910;SDS011;55953;51.650;-0.522;2022-08-14T00:49:05;7.80;;;5.20;;
68910;SDS011;55953;51.650;-0.522;2022-08-14T00:51:41;6.40;;;4.80;;
68910;SDS011;55953;51.650;-0.522;2022-08-14T00:54:14;7.60;;;4.60;;
68910;SDS011;55953;51.650;-0.522;2022-08-14T00:56:50;7.00;;;5.00;;
68910;SDS011;55953;51.650;-0.522;2022-08-14T00:59:26;8.00;;;4.40;;
68910;SDS011;55953;51.650;-0.522;2022-08-14T01:01:57;7.60;;;4.30;;
68910;SDS011;55953;51.650;-0.522;2022-08-14T01:07:20;7.10;;;4.10;;
68910;SDS011;55953;51.650;-0.522;2022-08-14T01:09:51;7.00;;;4.60;;
68910;SDS011;55953;51.650;-0.522;2022-08-14T01:12:25;5.60;;;4.40;;
68910;SDS011;55953;51.650;-0.522;2022-08-14T01:14:58;7.20;;;4.50;;
68910;SDS011;55953;51.650;-0.522;2022-08-14T01:17:30;8.00;;;5.00;;
68910;SDS011;55953;51.650;-0.522;2022-08-14T01:20:20;5.50;;;4.20;;
68910;SDS011;55953;51.650;-0.522;2022-08-14T01:23:12;4.80;;;4.10;;
68910;SDS011;55953;51.650;-0.522;2022-08-14T01:25:47;8.00;;;4.40;;
68910;SDS011;55953;51.650;-0.522;2022-08-14T01:28:19;6.80;;;4.60;;
68910;SDS011;55953;51.650;-0.522;2022-08-14T01:31:16;6.00;;;4.30;;
68910;SDS011;55953;51.650;-0.522;2022-08-14T01:33:48;6.70;;;4.30;;
68910;SDS011;55953;51.650;-0.522;2022-08-14T01:36:39;6.30;;;4.50;;
68910;SDS011;55953;51.650;-0.522;2022-08-14T01:39:14;8.40;;;4.60;;
68910;SDS011;55953;51.650;-0.522;2022-08-14T01:41:46;6.50;;;4.50;;
68910;SDS011;55953;51.650;-0.522;2022-08-14T01:44:26;6.70;;;4.50;;
68910;SDS011;55953;51.650;-0.522;2022-08-14T01:47:05;6.30;;;4.20;;
68910;SDS011;55953;51.650;-0.522;2022-08-14T01:49:50;6.20;;;4.80;;
68910;SDS011;55953;51.650;-0.522;2022-08-14T01:52:32;6.20;;;4.50;;
68910;SDS011;55953;51.650;-0.522;2022-08-14T01:55:24;6.10;;;4.80;;
68910;SDS011;55953;51.650;-0.522;2022-08-14T01:57:59;6.80;;;4.70;;
68910;SDS011;55953;51.650;-0.522;2022-08-14T02:00:49;6.50;;;4.60;;
68910;SDS011;55953;51.650;-0.522;2022-08-14T02:03:23;7.50;;;4.70;;
68910;SDS011;55953;51.650;-0.522;2022-08-14T02:05:58;8.20;;;4.70;;
68910;SDS011;55953;51.650;-0.522;2022-08-14T02:08:47;8.70;;;4.80;;
68910;SDS011;55953;51.650;-0.522;2022-08-14T02:11:23;8.60;;;5.60;;
68910;SDS011;55953;51.650;-0.522;2022-08-14T02:14:00;11.00;;;5.40;;
68910;SDS011;55953;51.650;-0.522;2022-08-14T02:16:36;6.50;;;4.90;;
68910;SDS011;55953;51.650;-0.522;2022-08-14T02:19:09;8.10;;;4.90;;
68910;SDS011;55953;51.650;-0.522;2022-08-14T02:21:46;7.10;;;5.60;;
68910;SDS011;55953;51.650;-0.522;2022-08-14T02:24:18;7.20;;;5.20;;
68910;SDS011;55953;51.650;-0.522;2022-08-14T02:27:08;9.10;;;5.00;;
68910;SDS011;55953;51.650;-0.522;2022-08-14T02:29:57;9.10;;;5.00;;
68910;SDS011;55953;51.650;-0.522;2022-08-14T02:32:30;9.10;;;5.70;;
68910;SDS011;55953;51.650;-0.522;2022-08-14T02:35:08;8.70;;;5.80;;
68910;SDS011;55953;51.650;-0.522;2022-08-14T02:37:45;7.30;;;5.70;;
68910;SDS011;55953;51.650;-0.522;2022-08-14T02:40:17;7.90;;;6.00;;
68910;SDS011;55953;51.650;-0.522;2022-08-14T02:42:46;7.80;;;5.50;;
68910;SDS011;55953;51.650;-0.522;2022-08-14T02:45:25;8.60;;;5.90;;
68910;SDS011;55953;51.650;-0.522;2022-08-14T02:48:04;9.80;;;5.90;;
68910;SDS011;55953;51.650;-0.522;2022-08-14T02:50:53;7.50;;;6.20;;
68910;SDS011;55953;51.650;-0.522;2022-08-14T02:53:21;11.80;;;6.00;;
68910;SDS011;55953;51.650;-0.522;2022-08-14T02:55:49;10.20;;;6.80;;
68910;SDS011;55953;51.650;-0.522;2022-08-14T02:58:18;9.10;;;6.80;;
68910;SDS011;55953;51.650;-0.522;2022-08-14T03:00:58;8.90;;;6.50;;
68910;SDS011;55953;51.650;-0.522;2022-08-14T03:03:28;8.80;;;6.10;;
68910;SDS011;55953;51.650;-0.522;2022-08-14T03:06:03;10.50;;;6.20;;
68910;SDS011;55953;51.650;-0.522;2022-08-14T03:08:36;9.30;;;5.90;;
68910;SDS011;55953;51.650;-0.522;2022-08-14T03:11:12;9.50;;;6.10;;
68910;SDS011;55953;51.650;-0.522;2022-08-14T03:13:44;9.20;;;5.90;;
68910;SDS011;55953;51.650;-0.522;2022-08-14T03:16:20;9.00;;;5.90;;
68910;SDS011;55953;51.650;-0.522;2022-08-14T03:18:54;8.30;;;6.30;;
68910;SDS011;55953;51.650;-0.522;2022-08-14T03:21:26;7.90;;;6.30;;
68910;SDS011;55953;51.650;-0.522;2022-08-14T03:24:00;7.90;;;5.80;;
68910;SDS011;55953;51.650;-0.522;2022-08-14T03:26:49;8.80;;;6.40;;
68910;SDS011;55953;51.650;-0.522;2022-08-14T03:29:24;9.30;;;6.00;;
68910;SDS011;55953;51.650;-0.522;2022-08-14T03:31:56;9.50;;;6.10;;
68910;SDS011;55953;51.650;-0.522;2022-08-14T03:34:26;8.60;;;6.00;;
68910;SDS011;55953;51.650;-0.522;2022-08-14T03:37:14;7.80;;;5.70;;
68910;SDS011;55953;51.650;-0.522;2022-08-14T03:40:03;8.00;;;6.20;;
68910;SDS011;55953;51.650;-0.522;2022-08-14T03:42:37;7.60;;;5.50;;
68910;SDS011;55953;51.650;-0.522;2022-08-14T03:45:06;7.30;;;5.70;;
68910;SDS011;55953;51.650;-0.522;2022-08-14T03:47:54;9.10;;;6.00;;
68910;SDS011;55953;51.650;-0.522;2022-08-14T03:53:00;9.70;;;6.00;;
68910;SDS011;55953;51.650;-0.522;2022-08-14T03:55:29;7.10;;;5.80;;
68910;SDS011;55953;51.650;-0.522;2022-08-14T03:57:57;7.20;;;5.70;;
68910;SDS011;55953;51.650;-0.522;2022-08-14T04:00:27;7.30;;;5.60;;
68910;SDS011;55953;51.650;-0.522;2022-08-14T04:03:11;6.70;;;5.40;;
68910;SDS011;55953;51.650;-0.522;2022-08-14T04:05:51;7.40;;;5.40;;
68910;SDS011;55953;51.650;-0.522;2022-08-14T04:08:20;7.70;;;5.70;;
68910;SDS011;55953;51.650;-0.522;2022-08-14T04:10:58;7.90;;;6.10;;
68910;SDS011;55953;51.650;-0.522;2022-08-14T04:13:34;10.10;;;5.80;;
68910;SDS011;55953;51.650;-0.522;2022-08-14T04:16:18;8.30;;;6.00;;
68910;SDS011;55953;51.650;-0.522;2022-08-14T04:18:54;9.60;;;5.20;;
68910;SDS011;55953;51.650;-0.522;2022-08-14T04:21:25;10.50;;;6.20;;
68910;SDS011;55953;51.650;-0.522;2022-08-14T04:23:58;8.90;;;6.00;;
68910;SDS011;55953;51.650;-0.522;2022-08-14T04:26:29;6.60;;;5.40;;
68910;SDS011;55953;51.650;-0.522;2022-08-14T04:29:10;8.30;;;5.50;;
68910;SDS011;55953;51.650;-0.522;2022-08-14T04:31:43;7.50;;;5.30;;
68910;SDS011;55953;51.650;-0.522;2022-08-14T04:34:31;8.80;;;6.10;;
68910;SDS011;55953;51.650;-0.522;2022-08-14T04:37:03;8.30;;;5.80;;
68910;SDS011;55953;51.650;-0.522;2022-08-14T04:39:53;10.70;;;6.00;;
68910;SDS011;55953;51.650;-0.522;2022-08-14T04:42:41;8.60;;;5.80;;
68910;SDS011;55953;51.650;-0.522;2022-08-14T04:45:28;8.30;;;5.70;;
68910;SDS011;55953;51.650;-0.522;2022-08-14T04:48:08;7.60;;;5.70;;
68910;SDS011;55953;51.650;-0.522;2022-08-14T04:51:04;11.90;;;5.50;;
68910;SDS011;55953;51.650;-0.522;2022-08-14T04:53:35;7.60;;;5.70;;
68910;SDS011;55953;51.650;-0.522;2022-08-14T04:56:15;6.80;;;5.20;;
68910;SDS011;55953;51.650;-0.522;2022-08-14T04:59:03;7.50;;;5.60;;
68910;SDS011;55953;51.650;-0.522;2022-08-14T05:01:41;9.50;;;5.40;;
68910;SDS011;55953;51.650;-0.522;2022-08-14T05:04:19;8.70;;;5.20;;
68910;SDS011;55953;51.650;-0.522;2022-08-14T05:06:52;8.90;;;5.70;;
68910;SDS011;55953;51.650;-0.522;2022-08-14T05:09:23;8.40;;;5.70;;
68910;SDS011;55953;51.650;-0.522;2022-08-14T05:11:57;7.70;;;5.60;;
68910;SDS011;55953;51.650;-0.522;2022-08-14T05:14:45;8.40;;;5.30;;
68910;SDS011;55953;51.650;-0.522;2022-08-14T05:17:23;7.50;;;5.10;;
68910;SDS011;55953;51.650;-0.522;2022-08-14T05:20:10;6.80;;;5.20;;
68910;SDS011;55953;51.650;-0.522;2022-08-14T05:22:58;7.30;;;5.10;;
68910;SDS011;55953;51.650;-0.522;2022-08-14T05:25:28;6.50;;;5.10;;
68910;SDS011;55953;51.650;-0.522;2022-08-14T05:28:12;8.50;;;4.90;;
68910;SDS011;55953;51.650;-0.522;2022-08-14T05:30:48;7.00;;;5.30;;
68910;SDS011;55953;51.650;-0.522;2022-08-14T05:33:20;9.10;;;5.10;;
68910;SDS011;55953;51.650;-0.522;2022-08-14T05:35:52;6.90;;;5.10;;
68910;SDS011;55953;51.650;-0.522;2022-08-14T05:38:20;6.20;;;5.10;;
68910;SDS011;55953;51.650;-0.522;2022-08-14T05:41:03;11.30;;;5.40;;
68910;SDS011;55953;51.650;-0.522;2022-08-14T05:43:36;11.20;;;5.20;;
68910;SDS011;55953;51.650;-0.522;2022-08-14T05:46:12;6.80;;;5.30;;
68910;SDS011;55953;51.650;-0.522;2022-08-14T05:48:46;7.10;;;5.20;;
68910;SDS011;55953;51.650;-0.522;2022-08-14T05:51:21;8.50;;;5.20;;
68910;SDS011;55953;51.650;-0.522;2022-08-14T05:53:50;6.30;;;5.10;;
68910;SDS011;55953;51.650;-0.522;2022-08-14T05:56:26;8.30;;;5.20;;
68910;SDS011;55953;51.650;-0.522;2022-08-14T05:58:55;8.20;;;5.30;;
68910;SDS011;55953;51.650;-0.522;2022-08-14T06:01:27;5.60;;;4.50;;
68910;SDS011;55953;51.650;-0.522;2022-08-14T06:03:58;7.30;;;5.00;;
68910;SDS011;55953;51.650;-0.522;2022-08-14T06:06:26;8.70;;;5.20;;
68910;SDS011;55953;51.650;-0.522;2022-08-14T06:08:54;7.40;;;5.20;;
68910;SDS011;55953;51.650;-0.522;2022-08-14T06:11:22;7.30;;;5.20;;
68910;SDS011;55953;51.650;-0.522;2022-08-14T06:13:57;10.30;;;5.10;;
68910;SDS011;55953;51.650;-0.522;2022-08-14T06:16:25;8.20;;;4.90;;
68910;SDS011;55953;51.650;-0.522;2022-08-14T06:18:55;8.60;;;5.20;;
68910;SDS011;55953;51.650;-0.522;2022-08-14T06:21:26;7.70;;;4.90;;
68910;SDS011;55953;51.650;-0.522;2022-08-14T06:23:56;7.40;;;5.10;;
68910;SDS011;55953;51.650;-0.522;2022-08-14T06:26:26;6.10;;;4.70;;
68910;SDS011;55953;51.650;-0.522;2022-08-14T06:28:57;5.90;;;4.80;;
68910;SDS011;55953;51.650;-0.522;2022-08-14T06:31:24;7.90;;;4.60;;
68910;SDS011;55953;51.650;-0.522;2022-08-14T06:33:53;7.80;;;4.50;;
68910;SDS011;55953;51.650;-0.522;2022-08-14T06:36:40;7.20;;;4.80;;
68910;SDS011;55953;51.650;-0.522;2022-08-14T06:39:08;6.80;;;4.60;;
68910;SDS011;55953;51.650;-0.522;2022-08-14T06:41:38;6.50;;;4.80;;
68910;SDS011;55953;51.650;-0.522;2022-08-14T06:44:27;7.60;;;4.40;;
68910;SDS011;55953;51.650;-0.522;2022-08-14T06:47:01;6.50;;;4.40;;
68910;SDS011;55953;51.650;-0.522;2022-08-14T06:49:29;7.70;;;4.60;;
68910;SDS011;55953;51.650;-0.522;2022-08-14T06:52:11;6.90;;;4.70;;
68910;SDS011;55953;51.650;-0.522;2022-08-14T06:54:43;6.70;;;4.60;;
68910;SDS011;55953;51.650;-0.522;2022-08-14T06:57:12;6.90;;;4.90;;
68910;SDS011;55953;51.650;-0.522;2022-08-14T06:59:40;6.20;;;4.50;;
68910;SDS011;55953;51.650;-0.522;2022-08-14T07:02:09;7.60;;;4.40;;
68910;SDS011;55953;51.650;-0.522;2022-08-14T07:04:57;6.80;;;4.40;;
68910;SDS011;55953;51.650;-0.522;2022-08-14T07:07:50;8.90;;;5.00;;
68910;SDS011;55953;51.650;-0.522;2022-08-14T07:10:19;7.20;;;4.50;;
68910;SDS011;55953;51.650;-0.522;2022-08-14T07:12:52;5.70;;;4.30;;
68910;SDS011;55953;51.650;-0.522;2022-08-14T07:15:31;6.50;;;4.50;;
68910;SDS011;55953;51.650;-0.522;2022-08-14T07:18:07;8.20;;;4.70;;
68910;SDS011;55953;51.650;-0.522;2022-08-14T07:20:37;6.50;;;4.50;;
68910;SDS011;55953;51.650;-0.522;2022-08-14T07:23:07;7.00;;;4.30;;
68910;SDS011;55953;51.650;-0.522;2022-08-14T07:25:49;7.40;;;4.10;;
68910;SDS011;55953;51.650;-0.522;2022-08-14T07:28:23;7.90;;;4.70;;
68910;SDS011;55953;51.650;-0.522;2022-08-14T07:31:05;7.90;;;4.60;;
68910;SDS011;55953;51.650;-0.522;2022-08-14T07:33:42;7.00;;;4.20;;
68910;SDS011;55953;51.650;-0.522;2022-08-14T07:36:18;5.60;;;4.20;;
68910;SDS011;55953;51.650;-0.522;2022-08-14T07:39:00;9.00;;;4.20;;
68910;SDS011;55953;51.650;-0.522;2022-08-14T07:41:30;6.80;;;4.50;;
68910;SDS011;55953;51.650;-0.522;2022-08-14T07:44:02;5.30;;;4.10;;
68910;SDS011;55953;51.650;-0.522;2022-08-14T07:46:50;6.50;;;4.00;;
68910;SDS011;55953;51.650;-0.522;2022-08-14T07:49:19;7.70;;;4.50;;
68910;SDS011;55953;51.650;-0.522;2022-08-14T07:51:50;7.70;;;4.00;;
68910;SDS011;55953;51.650;-0.522;2022-08-14T07:54:18;6.00;;;4.40;;
68910;SDS011;55953;51.650;-0.522;2022-08-14T07:56:58;5.50;;;4.10;;
68910;SDS011;55953;51.650;-0.522;2022-08-14T07:59:32;5.90;;;4.20;;
68910;SDS011;55953;51.650;-0.522;2022-08-14T08:02:12;5.80;;;4.20;;
68910;SDS011;55953;51.650;-0.522;2022-08-14T08:04:49;5.50;;;4.00;;
68910;SDS011;55953;51.650;-0.522;2022-08-14T08:07:26;8.00;;;4.20;;
68910;SDS011;55953;51.650;-0.522;2022-08-14T08:10:00;9.60;;;4.90;;
68910;SDS011;55953;51.650;-0.522;2022-08-14T08:13:17;5.90;;;4.10;;
68910;SDS011;55953;51.650;-0.522;2022-08-14T08:15:55;5.20;;;4.00;;
68910;SDS011;55953;51.650;-0.522;2022-08-14T08:18:25;5.30;;;4.20;;
68910;SDS011;55953;51.650;-0.522;2022-08-14T08:20:57;5.90;;;4.50;;
68910;SDS011;55953;51.650;-0.522;2022-08-14T08:23:29;7.00;;;4.40;;
68910;SDS011;55953;51.650;-0.522;2022-08-14T08:26:18;6.50;;;4.40;;
68910;SDS011;55953;51.650;-0.522;2022-08-14T08:28:56;5.90;;;4.10;;
68910;SDS011;55953;51.650;-0.522;2022-08-14T08:31:25;6.20;;;4.40;;
68910;SDS011;55953;51.650;-0.522;2022-08-14T08:34:03;6.90;;;4.30;;
68910;SDS011;55953;51.650;-0.522;2022-08-14T08:36:40;5.40;;;4.50;;
68910;SDS011;55953;51.650;-0.522;2022-08-14T08:39:13;6.30;;;4.70;;
68910;SDS011;55953;51.650;-0.522;2022-08-14T08:41:49;8.60;;;4.90;;
68910;SDS011;55953;51.650;-0.522;2022-08-14T08:47:01;5.90;;;4.20;;
68910;SDS011;55953;51.650;-0.522;2022-08-14T08:49:39;6.30;;;4.50;;
68910;SDS011;55953;51.650;-0.522;2022-08-14T08:54:55;4.80;;;4.20;;
68910;SDS011;55953;51.650;-0.522;2022-08-14T08:57:23;7.10;;;4.20;;
68910;SDS011;55953;51.650;-0.522;2022-08-14T08:59:51;5.90;;;4.60;;
68910;SDS011;55953;51.650;-0.522;2022-08-14T09:02:25;6.30;;;4.80;;
68910;SDS011;55953;51.650;-0.522;2022-08-14T09:05:01;6.50;;;4.70;;
68910;SDS011;55953;51.650;-0.522;2022-08-14T09:07:30;8.20;;;5.10;;
68910;SDS011;55953;51.650;-0.522;2022-08-14T09:10:00;8.30;;;5.60;;
68910;SDS011;55953;51.650;-0.522;2022-08-14T09:12:28;7.00;;;5.20;;
68910;SDS011;55953;51.650;-0.522;2022-08-14T09:15:08;7.50;;;4.90;;
68910;SDS011;55953;51.650;-0.522;2022-08-14T09:17:40;6.00;;;5.10;;
68910;SDS011;55953;51.650;-0.522;2022-08-14T09:20:10;7.30;;;4.80;;
68910;SDS011;55953;51.650;-0.522;2022-08-14T09:22:40;9.40;;;5.00;;
68910;SDS011;55953;51.650;-0.522;2022-08-14T09:25:16;7.50;;;5.30;;
68910;SDS011;55953;51.650;-0.522;2022-08-14T09:27:46;9.00;;;5.10;;
68910;SDS011;55953;51.650;-0.522;2022-08-14T09:30:14;8.20;;;5.20;;
68910;SDS011;55953;51.650;-0.522;2022-08-14T09:45:21;6.00;;;4.50;;
68910;SDS011;55953;51.650;-0.522;2022-08-14T09:48:21;5.90;;;4.90;;
68910;SDS011;55953;51.650;-0.522;2022-08-14T09:50:58;8.10;;;5.00;;
68910;SDS011;55953;51.650;-0.522;2022-08-14T09:56:24;8.20;;;5.50;;
68910;SDS011;55953;51.650;-0.522;2022-08-14T09:59:09;9.50;;;5.40;;
68910;SDS011;55953;51.650;-0.522;2022-08-14T10:01:43;8.10;;;5.90;;
68910;SDS011;55953;51.650;-0.522;2022-08-14T10:04:21;8.40;;;5.10;;
68910;SDS011;55953;51.650;-0.522;2022-08-14T10:07:05;5.80;;;5.10;;
68910;SDS011;55953;51.650;-0.522;2022-08-14T10:09:46;6.30;;;4.80;;
68910;SDS011;55953;51.650;-0.522;2022-08-14T10:12:45;7.80;;;5.30;;
68910;SDS011;55953;51.650;-0.522;2022-08-14T10:15:26;8.50;;;5.50;;
68910;SDS011;55953;51.650;-0.522;2022-08-14T10:20:53;8.20;;;6.70;;
68910;SDS011;55953;51.650;-0.522;2022-08-14T10:23:44;9.30;;;7.50;;
68910;SDS011;55953;51.650;-0.522;2022-08-14T10:26:19;11.00;;;7.10;;
68910;SDS011;55953;51.650;-0.522;2022-08-14T10:29:04;10.70;;;7.80;;
68910;SDS011;55953;51.650;-0.522;2022-08-14T10:31:56;8.80;;;6.10;;
68910;SDS011;55953;51.650;-0.522;2022-08-14T10:34:33;8.90;;;7.00;;
68910;SDS011;55953;51.650;-0.522;2022-08-14T10:37:06;8.80;;;6.20;;
68910;SDS011;55953;51.650;-0.522;2022-08-14T10:39:57;12.80;;;6.30;;
68910;SDS011;55953;51.650;-0.522;2022-08-14T10:42:40;8.10;;;6.60;;
68910;SDS011;55953;51.650;-0.522;2022-08-14T10:45:21;8.60;;;6.30;;
68910;SDS011;55953;51.650;-0.522;2022-08-14T10:47:52;6.50;;;5.70;;
68910;SDS011;55953;51.650;-0.522;2022-08-14T10:50:40;7.80;;;5.80;;
68910;SDS011;55953;51.650;-0.522;2022-08-14T10:53:13;9.80;;;5.30;;
68910;SDS011;55953;51.650;-0.522;2022-08-14T10:55:41;6.30;;;4.60;;
68910;SDS011;55953;51.650;-0.522;2022-08-14T11:00:53;5.50;;;4.30;;
68910;SDS011;55953;51.650;-0.522;2022-08-14T11:03:38;8.30;;;4.80;;
68910;SDS011;55953;51.650;-0.522;2022-08-14T11:06:23;5.40;;;4.40;;
68910;SDS011;55953;51.650;-0.522;2022-08-14T11:08:53;7.70;;;4.30;;
68910;SDS011;55953;51.650;-0.522;2022-08-14T11:11:25;6.60;;;4.50;;
68910;SDS011;55953;51.650;-0.522;2022-08-14T11:14:03;6.20;;;4.20;;
68910;SDS011;55953;51.650;-0.522;2022-08-14T11:16:36;5.60;;;3.70;;
68910;SDS011;55953;51.650;-0.522;2022-08-14T11:19:08;7.30;;;4.00;;
68910;SDS011;55953;51.650;-0.522;2022-08-14T11:21:38;4.60;;;3.90;;
68910;SDS011;55953;51.650;-0.522;2022-08-14T11:24:13;5.40;;;3.90;;
68910;SDS011;55953;51.650;-0.522;2022-08-14T11:27:03;6.70;;;3.80;;
68910;SDS011;55953;51.650;-0.522;2022-08-14T11:29:32;4.40;;;3.40;;
68910;SDS011;55953;51.650;-0.522;2022-08-14T11:34:37;3.60;;;3.20;;
68910;SDS011;55953;51.650;-0.522;2022-08-14T11:37:09;5.00;;;3.30;;
68910;SDS011;55953;51.650;-0.522;2022-08-14T11:39:53;4.10;;;3.30;;
68910;SDS011;55953;51.650;-0.522;2022-08-14T11:42:23;4.70;;;3.50;;
68910;SDS011;55953;51.650;-0.522;2022-08-14T11:45:13;5.80;;;3.80;;
68910;SDS011;55953;51.650;-0.522;2022-08-14T11:47:45;5.50;;;3.50;;
68910;SDS011;55953;51.650;-0.522;2022-08-14T11:50:33;5.50;;;3.90;;
68910;SDS011;55953;51.650;-0.522;2022-08-14T11:53:05;4.00;;;3.40;;
68910;SDS011;55953;51.650;-0.522;2022-08-14T11:55:46;5.90;;;3.50;;
68910;SDS011;55953;51.650;-0.522;2022-08-14T11:58:25;4.20;;;3.30;;
68910;SDS011;55953;51.650;-0.522;2022-08-14T12:01:00;3.90;;;3.40;;
68910;SDS011;55953;51.650;-0.522;2022-08-14T12:03:45;5.90;;;3.90;;
68910;SDS011;55953;51.650;-0.522;2022-08-14T12:06:24;5.90;;;3.90;;
68910;SDS011;55953;51.650;-0.522;2022-08-14T12:09:06;4.50;;;3.30;;
68910;SDS011;55953;51.650;-0.522;2022-08-14T12:11:39;4.70;;;3.40;;
68910;SDS011;55953;51.650;-0.522;2022-08-14T12:14:13;4.10;;;3.70;;
68910;SDS011;55953;51.650;-0.522;2022-08-14T12:17:04;3.90;;;3.40;;
68910;SDS011;55953;51.650;-0.522;2022-08-14T12:19:51;5.20;;;3.50;;
68910;SDS011;55953;51.650;-0.522;2022-08-14T12:22:36;4.20;;;3.80;;
68910;SDS011;55953;51.650;-0.522;2022-08-14T12:25:11;5.10;;;3.60;;
68910;SDS011;55953;51.650;-0.522;2022-08-14T12:27:48;6.20;;;3.90;;
68910;SDS011;55953;51.650;-0.522;2022-08-14T12:36:02;5.00;;;3.40;;
68910;SDS011;55953;51.650;-0.522;2022-08-14T12:38:41;3.90;;;3.50;;
68910;SDS011;55953;51.650;-0.522;2022-08-14T12:41:18;4.40;;;3.20;;
68910;SDS011;55953;51.650;-0.522;2022-08-14T12:44:04;5.40;;;3.50;;
68910;SDS011;55953;51.650;-0.522;2022-08-14T12:46:40;5.30;;;3.60;;
68910;SDS011;55953;51.650;-0.522;2022-08-14T12:49:15;3.90;;;3.50;;
68910;SDS011;55953;51.650;-0.522;2022-08-14T12:51:58;4.70;;;3.60;;
68910;SDS011;55953;51.650;-0.522;2022-08-14T12:54:27;6.10;;;4.10;;
68910;SDS011;55953;51.650;-0.522;2022-08-14T12:57:15;5.40;;;3.90;;
68910;SDS011;55953;51.650;-0.522;2022-08-14T12:59:47;5.80;;;3.60;;
68910;SDS011;55953;51.650;-0.522;2022-08-14T13:02:23;5.10;;;3.40;;
68910;SDS011;55953;51.650;-0.522;2022-08-14T13:04:54;4.40;;;3.50;;
68910;SDS011;55953;51.650;-0.522;2022-08-14T13:07:27;4.30;;;3.80;;
68910;SDS011;55953;51.650;-0.522;2022-08-14T13:10:00;5.20;;;3.70;;
68910;SDS011;55953;51.650;-0.522;2022-08-14T13:12:50;4.20;;;3.40;;
68910;SDS011;55953;51.650;-0.522;2022-08-14T13:15:43;5.40;;;3.90;;
68910;SDS011;55953;51.650;-0.522;2022-08-14T13:18:14;5.20;;;3.80;;
68910;SDS011;55953;51.650;-0.522;2022-08-14T13:23:18;5.90;;;4.10;;
68910;SDS011;55953;51.650;-0.522;2022-08-14T13:25:59;6.90;;;4.10;;
68910;SDS011;55953;51.650;-0.522;2022-08-14T13:31:01;5.60;;;4.20;;
68910;SDS011;55953;51.650;-0.522;2022-08-14T13:33:38;5.50;;;4.70;;
68910;SDS011;55953;51.650;-0.522;2022-08-14T13:36:10;5.50;;;4.50;;
68910;SDS011;55953;51.650;-0.522;2022-08-14T13:38:52;5.60;;;4.50;;
68910;SDS011;55953;51.650;-0.522;2022-08-14T13:41:20;6.70;;;4.70;;
68910;SDS011;55953;51.650;-0.522;2022-08-14T13:44:03;7.10;;;4.30;;
68910;SDS011;55953;51.650;-0.522;2022-08-14T13:46:34;5.90;;;4.30;;
68910;SDS011;55953;51.650;-0.522;2022-08-14T13:49:02;4.70;;;4.20;;
68910;SDS011;55953;51.650;-0.522;2022-08-14T13:51:41;5.70;;;4.30;;
68910;SDS011;55953;51.650;-0.522;2022-08-14T13:54:18;5.60;;;4.00;;
68910;SDS011;55953;51.650;-0.522;2022-08-14T13:56:50;6.30;;;4.00;;
68910;SDS011;55953;51.650;-0.522;2022-08-14T13:59:18;7.00;;;4.00;;
68910;SDS011;55953;51.650;-0.522;2022-08-14T14:02:05;5.60;;;3.90;;
68910;SDS011;55953;51.650;-0.522;2022-08-14T14:07:10;4.80;;;4.20;;
68910;SDS011;55953;51.650;-0.522;2022-08-14T14:09:44;5.90;;;4.10;;
68910;SDS011;55953;51.650;-0.522;2022-08-14T14:12:19;4.40;;;3.70;;
68910;SDS011;55953;51.650;-0.522;2022-08-14T14:15:10;6.20;;;3.90;;
68910;SDS011;55953;51.650;-0.522;2022-08-14T14:17:44;6.60;;;4.20;;
68910;SDS011;55953;51.650;-0.522;2022-08-14T14:20:18;5.50;;;4.00;;
68910;SDS011;55953;51.650;-0.522;2022-08-14T14:23:03;5.40;;;4.30;;
68910;SDS011;55953;51.650;-0.522;2022-08-14T14:25:43;5.80;;;4.40;;
68910;SDS011;55953;51.650;-0.522;2022-08-14T14:28:29;5.60;;;4.50;;
68910;SDS011;55953;51.650;-0.522;2022-08-14T14:31:00;5.90;;;4.50;;
68910;SDS011;55953;51.650;-0.522;2022-08-14T14:33:34;4.90;;;4.30;;
68910;SDS011;55953;51.650;-0.522;2022-08-14T14:36:21;6.60;;;4.40;;
68910;SDS011;55953;51.650;-0.522;2022-08-14T14:38:57;6.80;;;4.40;;
68910;SDS011;55953;51.650;-0.522;2022-08-14T14:41:29;5.60;;;4.30;;
68910;SDS011;55953;51.650;-0.522;2022-08-14T14:44:09;5.80;;;4.40;;
68910;SDS011;55953;51.650;-0.522;2022-08-14T14:46:42;5.50;;;4.60;;
68910;SDS011;55953;51.650;-0.522;2022-08-14T14:49:18;5.00;;;4.20;;
68910;SDS011;55953;51.650;-0.522;2022-08-14T14:51:48;5.10;;;4.20;;
68910;SDS011;55953;51.650;-0.522;2022-08-14T14:54:20;5.90;;;4.00;;
68910;SDS011;55953;51.650;-0.522;2022-08-14T14:56:59;6.00;;;4.30;;
68910;SDS011;55953;51.650;-0.522;2022-08-14T14:59:32;5.10;;;4.40;;
68910;SDS011;55953;51.650;-0.522;2022-08-14T15:02:03;6.40;;;4.50;;
68910;SDS011;55953;51.650;-0.522;2022-08-14T15:04:36;7.30;;;4.20;;
68910;SDS011;55953;51.650;-0.522;2022-08-14T15:07:10;5.10;;;4.50;;
68910;SDS011;55953;51.650;-0.522;2022-08-14T15:09:39;5.30;;;4.60;;
68910;SDS011;55953;51.650;-0.522;2022-08-14T15:12:07;6.00;;;4.50;;
68910;SDS011;55953;51.650;-0.522;2022-08-14T15:14:55;7.10;;;4.50;;
68910;SDS011;55953;51.650;-0.522;2022-08-14T15:17:36;6.80;;;4.90;;
68910;SDS011;55953;51.650;-0.522;2022-08-14T15:20:11;5.70;;;4.80;;
68910;SDS011;55953;51.650;-0.522;2022-08-14T15:22:58;5.40;;;4.30;;
68910;SDS011;55953;51.650;-0.522;2022-08-14T15:25:40;5.00;;;4.00;;
68910;SDS011;55953;51.650;-0.522;2022-08-14T15:28:09;7.10;;;4.30;;
68910;SDS011;55953;51.650;-0.522;2022-08-14T15:30:41;5.50;;;4.20;;
68910;SDS011;55953;51.650;-0.522;2022-08-14T15:33:11;5.00;;;4.20;;
68910;SDS011;55953;51.650;-0.522;2022-08-14T15:35:40;5.70;;;4.40;;
68910;SDS011;55953;51.650;-0.522;2022-08-14T15:38:12;5.50;;;4.60;;
68910;SDS011;55953;51.650;-0.522;2022-08-14T15:40:44;4.50;;;4.10;;
68910;SDS011;55953;51.650;-0.522;2022-08-14T15:43:22;5.80;;;4.40;;
68910;SDS011;55953;51.650;-0.522;2022-08-14T15:46:01;5.10;;;4.10;;
68910;SDS011;55953;51.650;-0.522;2022-08-14T15:48:33;5.20;;;4.00;;
68910;SDS011;55953;51.650;-0.522;2022-08-14T15:51:06;5.60;;;4.30;;
68910;SDS011;55953;51.650;-0.522;2022-08-14T15:53:36;5.00;;;4.30;;
68910;SDS011;55953;51.650;-0.522;2022-08-14T15:56:06;5.80;;;4.30;;
68910;SDS011;55953;51.650;-0.522;2022-08-14T15:58:36;5.60;;;4.10;;
68910;SDS011;55953;51.650;-0.522;2022-08-14T16:01:04;4.20;;;3.80;;
68910;SDS011;55953;51.650;-0.522;2022-08-14T16:04:07;5.60;;;4.00;;
68910;SDS011;55953;51.650;-0.522;2022-08-14T16:06:43;5.70;;;4.30;;
68910;SDS011;55953;51.650;-0.522;2022-08-14T16:09:21;6.40;;;4.80;;
68910;SDS011;55953;51.650;-0.522;2022-08-14T16:11:50;5.80;;;4.40;;
68910;SDS011;55953;51.650;-0.522;2022-08-14T16:14:21;4.70;;;4.20;;
68910;SDS011;55953;51.650;-0.522;2022-08-14T16:16:50;5.70;;;4.00;;